createdAt,value
2019-05-17T00:02:06.812Z,30.00
2019-05-17T00:04:36.520Z,38.83
2019-05-17T00:07:06.782Z,38.73
2019-05-17T00:09:37.508Z,44.80
2019-05-17T00:12:07.699Z,43.50
2019-05-17T00:14:37.817Z,39.10
2019-05-17T00:17:08.042Z,43.15
2019-05-17T00:19:38.183Z,40.15
2019-05-17T00:22:08.360Z,42.90
2019-05-17T00:24:38.477Z,42.70
2019-05-17T00:27:08.668Z,36.77
2019-05-17T00:29:38.892Z,41.98
2019-05-17T00:32:09.133Z,40.05
2019-05-17T00:34:40.098Z,42.58
2019-05-17T00:37:10.302Z,40.95
2019-05-17T00:39:40.466Z,37.00
2019-05-17T00:42:11.712Z,49.23
2019-05-17T00:44:42.031Z,48.20
2019-05-17T00:47:12.193Z,46.53
2019-05-17T00:49:42.346Z,40.58
2019-05-17T00:52:12.520Z,41.25
2019-05-17T00:54:42.616Z,46.15
2019-05-17T00:57:12.768Z,39.65
2019-05-17T00:59:42.911Z,49.23
2019-05-17T01:02:13.177Z,54.25
2019-05-17T01:04:43.398Z,55.12
2019-05-17T01:07:13.833Z,41.70
2019-05-17T01:09:47.119Z,44.67
2019-05-17T01:12:16.888Z,48.63
2019-05-17T01:14:46.993Z,48.02
2019-05-17T01:17:17.206Z,48.48
2019-05-17T01:19:50.299Z,45.60
2019-05-17T01:22:20.522Z,40.73
2019-05-17T01:24:50.748Z,44.13
2019-05-17T01:27:20.908Z,61.75
2019-05-17T01:29:51.370Z,59.50
2019-05-17T01:32:21.513Z,56.18
2019-05-17T01:34:51.642Z,57.48
2019-05-17T01:37:22.901Z,56.92
2019-05-17T01:39:53.030Z,62.05
2019-05-17T01:42:28.418Z,53.68
2019-05-17T01:44:59.070Z,51.83
2019-05-17T01:47:29.250Z,54.08
2019-05-17T01:49:59.392Z,38.40
2019-05-17T01:52:31.653Z,39.98
2019-05-17T01:55:01.815Z,36.75
2019-05-17T01:57:32.859Z,54.08
2019-05-17T02:00:03.028Z,36.77
2019-05-17T02:02:37.506Z,40.55
2019-05-17T02:05:08.107Z,44.33
2019-05-17T02:07:38.254Z,48.10
2019-05-17T02:10:10.779Z,39.80
2019-05-17T02:12:40.954Z,44.10
2019-05-17T02:15:11.915Z,36.60
2019-05-17T02:17:42.222Z,37.88
2019-05-17T02:20:14.107Z,44.55
2019-05-17T02:22:44.350Z,34.20
2019-05-17T02:25:16.703Z,34.13
2019-05-17T02:27:47.227Z,41.28
2019-05-17T02:30:17.641Z,39.18
2019-05-17T02:32:49.116Z,43.78
2019-05-17T02:35:19.381Z,32.63
2019-05-17T02:37:53.192Z,39.60
2019-05-17T02:40:22.762Z,38.40
2019-05-17T02:42:53.663Z,40.55
2019-05-17T02:45:24.166Z,35.10
2019-05-17T02:47:56.837Z,36.60
2019-05-17T02:50:27.191Z,33.10
2019-05-17T02:52:57.280Z,41.35
2019-05-17T02:55:27.434Z,41.37
2019-05-17T02:58:02.888Z,37.30
2019-05-17T03:00:33.821Z,38.23
2019-05-17T03:03:04.244Z,40.25
2019-05-17T03:05:34.393Z,32.15
2019-05-17T03:08:12.149Z,36.25
2019-05-17T03:10:44.054Z,33.28
2019-05-17T03:13:19.294Z,27.17
2019-05-17T03:15:53.141Z,28.27
2019-05-17T03:18:23.363Z,24.87
2019-05-17T03:20:53.617Z,27.10
2019-05-17T03:23:25.178Z,23.42
2019-05-17T03:26:04.515Z,23.83
2019-05-17T03:28:34.595Z,24.45
2019-05-17T03:31:08.626Z,36.05
2019-05-17T03:33:37.924Z,30.57
2019-05-17T03:36:08.267Z,29.37
2019-05-17T03:38:38.357Z,32.23
2019-05-17T03:41:22.850Z,36.08
2019-05-17T03:43:48.386Z,30.43
2019-05-17T03:46:23.204Z,28.30
2019-05-17T03:48:53.614Z,31.68
2019-05-17T03:51:23.764Z,28.23
2019-05-17T03:53:55.078Z,23.83
2019-05-17T03:56:25.249Z,23.15
2019-05-17T03:58:58.525Z,42.17
2019-05-17T04:01:32.825Z,26.68
2019-05-17T04:04:05.526Z,29.02
2019-05-17T04:06:35.683Z,27.42
2019-05-17T04:09:13.840Z,26.50
2019-05-17T04:11:44.150Z,24.75
2019-05-17T04:14:16.537Z,25.52
2019-05-17T04:16:49.383Z,24.15
2019-05-17T04:19:22.763Z,25.32
2019-05-17T04:21:53.684Z,31.95
2019-05-17T04:24:32.469Z,22.48
2019-05-17T04:27:03.795Z,22.48
2019-05-17T04:29:38.827Z,25.95
2019-05-17T04:32:12.988Z,22.93
2019-05-17T04:34:43.731Z,21.55
2019-05-17T04:37:14.063Z,20.72
2019-05-17T04:39:44.712Z,25.80
2019-05-17T04:42:22.877Z,25.30
2019-05-17T04:44:53.171Z,21.87
2019-05-17T04:47:23.337Z,20.80
2019-05-17T04:49:53.981Z,20.62
2019-05-17T04:52:25.200Z,17.02
2019-05-17T04:54:55.330Z,17.48
2019-05-17T04:57:27.207Z,18.30
2019-05-17T04:59:57.317Z,15.08
2019-05-17T05:02:32.773Z,14.98
2019-05-17T05:05:02.884Z,17.48
2019-05-17T05:07:33.641Z,13.10
2019-05-17T05:10:03.399Z,13.95
2019-05-17T05:12:33.872Z,15.95
2019-05-17T05:15:04.578Z,15.95
2019-05-17T05:17:34.877Z,13.98
2019-05-17T05:20:05.638Z,14.55
2019-05-17T05:22:35.834Z,16.50
2019-05-17T05:25:06.133Z,13.48
2019-05-17T05:27:36.289Z,15.80
2019-05-17T05:30:06.712Z,14.70
2019-05-17T05:32:37.774Z,15.53
2019-05-17T05:35:08.274Z,13.90
2019-05-17T05:37:38.921Z,16.70
2019-05-17T05:40:09.593Z,12.90
2019-05-17T05:42:42.261Z,14.50
2019-05-17T05:45:12.211Z,13.10
2019-05-17T05:47:43.299Z,14.40
2019-05-17T05:50:13.910Z,14.30
2019-05-17T05:52:44.756Z,17.92
2019-05-17T05:55:16.507Z,13.50
2019-05-17T05:57:46.627Z,12.25
2019-05-17T06:00:17.383Z,13.55
2019-05-17T06:02:47.476Z,14.18
2019-05-17T06:05:17.864Z,15.88
2019-05-17T06:07:48.011Z,16.70
2019-05-17T06:10:18.316Z,13.20
2019-05-17T06:12:48.460Z,16.05
2019-05-17T06:15:18.798Z,17.90
2019-05-17T06:17:48.999Z,17.12
2019-05-17T06:20:22.382Z,17.10
2019-05-17T06:22:52.167Z,18.67
2019-05-17T06:25:23.422Z,15.15
2019-05-17T06:27:53.684Z,18.77
2019-05-17T06:30:24.957Z,20.77
2019-05-17T06:32:55.118Z,16.48
2019-05-17T06:35:26.424Z,18.57
2019-05-17T06:37:56.605Z,23.25
2019-05-17T06:40:26.773Z,16.37
2019-05-17T06:42:56.899Z,20.52
2019-05-17T06:45:27.058Z,18.77
2019-05-17T06:47:57.186Z,17.95
2019-05-17T06:50:28.154Z,19.73
2019-05-17T06:52:58.790Z,22.00
2019-05-17T06:55:31.465Z,22.02
2019-05-17T06:58:02.605Z,21.93
2019-05-17T07:00:32.781Z,19.90
2019-05-17T07:03:02.931Z,20.37
2019-05-17T07:05:36.326Z,21.52
2019-05-17T07:08:06.567Z,22.25
2019-05-17T07:10:39.803Z,21.82
2019-05-17T07:13:10.599Z,19.75
2019-05-17T07:15:47.332Z,18.25
2019-05-17T07:18:13.180Z,18.90
2019-05-17T07:20:43.418Z,19.87
2019-05-17T07:23:13.602Z,23.35
2019-05-17T07:25:43.801Z,22.10
2019-05-17T07:28:15.554Z,21.00
2019-05-17T07:30:45.699Z,23.30
2019-05-17T07:33:15.817Z,21.23
2019-05-17T07:35:46.021Z,24.35
2019-05-17T07:38:16.218Z,23.12
2019-05-17T07:40:46.667Z,22.80
2019-05-17T07:43:16.990Z,22.35
2019-05-17T07:45:49.501Z,19.15
2019-05-17T07:48:20.314Z,20.80
2019-05-17T07:50:50.613Z,21.77
2019-05-17T07:53:21.830Z,18.55
2019-05-17T07:55:52.011Z,25.27
2019-05-17T07:58:22.157Z,24.47
2019-05-17T08:00:52.585Z,22.65
2019-05-17T08:03:25.933Z,21.35
2019-05-17T08:05:56.365Z,23.18
2019-05-17T08:08:26.507Z,22.73
2019-05-17T08:10:56.857Z,23.77
2019-05-17T08:13:30.542Z,25.72
2019-05-17T08:15:59.472Z,27.02
2019-05-17T08:18:29.878Z,28.00
2019-05-17T08:21:00.303Z,28.55
2019-05-17T08:23:32.166Z,26.15
2019-05-17T08:26:02.521Z,28.80
2019-05-17T08:28:32.979Z,30.30
2019-05-17T08:31:04.947Z,25.02
2019-05-17T08:33:35.106Z,32.50
2019-05-17T08:36:09.339Z,27.50
2019-05-17T08:38:39.630Z,27.15
2019-05-17T08:41:10.641Z,25.70
2019-05-17T08:43:46.734Z,25.55
2019-05-17T08:46:14.130Z,26.50
2019-05-17T08:48:44.412Z,27.37
2019-05-17T08:51:14.986Z,21.17
2019-05-17T08:53:45.137Z,25.68
2019-05-17T08:56:20.380Z,26.23
2019-05-17T08:58:50.941Z,25.40
2019-05-17T09:01:21.651Z,24.10
2019-05-17T09:03:51.755Z,22.58
2019-05-17T09:06:21.931Z,18.57
2019-05-17T09:08:52.121Z,19.75
2019-05-17T09:11:22.397Z,18.05
2019-05-17T09:13:57.930Z,18.98
2019-05-17T09:16:24.533Z,20.52
2019-05-17T09:18:55.051Z,17.05
2019-05-17T09:21:25.516Z,17.37
2019-05-17T09:23:55.893Z,16.48
2019-05-17T09:26:32.204Z,12.65
2019-05-17T09:29:03.935Z,17.92
2019-05-17T09:31:35.317Z,16.02
2019-05-17T09:34:05.685Z,13.93
2019-05-17T09:36:35.871Z,16.60
2019-05-17T09:39:09.480Z,14.98
2019-05-17T09:41:39.925Z,14.98
2019-05-17T09:44:15.903Z,16.30
2019-05-17T09:46:41.968Z,15.00
2019-05-17T09:49:12.128Z,15.55
2019-05-17T09:51:42.294Z,16.23
2019-05-17T09:54:12.471Z,15.03
2019-05-17T09:56:42.675Z,17.50
2019-05-17T09:59:12.887Z,19.12
2019-05-17T10:01:43.405Z,18.77
2019-05-17T10:04:14.030Z,18.00
2019-05-17T10:06:44.386Z,18.07
2019-05-17T10:09:15.915Z,15.13
2019-05-17T10:11:49.227Z,13.72
2019-05-17T10:14:27.665Z,14.55
2019-05-17T10:16:55.132Z,16.42
2019-05-17T10:19:25.398Z,15.70
2019-05-17T10:22:00.007Z,18.30
2019-05-17T10:24:37.831Z,17.02
2019-05-17T10:27:05.272Z,14.90
2019-05-17T10:29:35.701Z,20.10
2019-05-17T10:32:06.041Z,12.20
2019-05-17T10:34:37.407Z,16.23
2019-05-17T10:37:10.472Z,15.88
2019-05-17T10:39:41.692Z,17.05
2019-05-17T10:42:11.637Z,15.45
2019-05-17T10:44:47.383Z,15.30
2019-05-17T10:47:15.711Z,15.55
2019-05-17T10:49:45.973Z,15.10
2019-05-17T10:52:17.122Z,13.93
2019-05-17T10:54:49.995Z,12.80
2019-05-17T10:57:20.299Z,13.93
2019-05-17T10:59:50.903Z,13.38
2019-05-17T11:02:23.377Z,12.47
2019-05-17T11:04:53.672Z,14.73
2019-05-17T11:07:23.919Z,11.43
2019-05-17T11:10:00.331Z,12.30
2019-05-17T11:12:32.537Z,9.80
2019-05-17T11:15:11.080Z,10.80
2019-05-17T11:17:36.434Z,13.30
2019-05-17T11:20:08.368Z,10.32
2019-05-17T11:22:39.773Z,13.55
2019-05-17T11:25:11.581Z,14.00
2019-05-17T11:27:41.735Z,13.60
2019-05-17T11:30:13.382Z,12.40
2019-05-17T11:32:45.521Z,13.48
2019-05-17T11:35:15.761Z,11.03
2019-05-17T11:37:45.933Z,11.88
2019-05-17T11:40:16.363Z,10.72
2019-05-17T11:42:48.828Z,10.45
2019-05-17T11:45:29.103Z,11.80
2019-05-17T11:48:03.059Z,8.58
2019-05-17T11:50:33.376Z,11.75
2019-05-17T11:53:03.939Z,9.78
2019-05-17T11:55:36.404Z,9.23
2019-05-17T11:58:06.621Z,11.25
2019-05-17T12:00:36.819Z,12.47
2019-05-17T12:03:10.789Z,8.20
2019-05-17T12:05:41.080Z,8.13
2019-05-17T12:08:11.360Z,8.15
2019-05-17T12:10:41.853Z,9.25
2019-05-17T12:13:12.046Z,10.65
2019-05-17T12:15:45.742Z,11.43
2019-05-17T12:18:18.219Z,12.78
2019-05-17T12:20:54.854Z,10.25
2019-05-17T12:23:25.222Z,8.00
2019-05-17T12:25:55.374Z,11.15
2019-05-17T12:28:26.370Z,13.08
2019-05-17T12:30:56.978Z,13.13
2019-05-17T12:33:27.170Z,13.78
2019-05-17T12:35:57.382Z,7.85
2019-05-17T12:38:28.316Z,8.88
2019-05-17T12:40:59.635Z,7.90
2019-05-17T12:43:29.825Z,9.73
2019-05-17T12:46:01.667Z,8.68
2019-05-17T12:48:32.180Z,9.45
2019-05-17T12:51:02.785Z,7.62
2019-05-17T12:53:33.028Z,9.00
2019-05-17T12:56:03.277Z,9.55
2019-05-17T12:58:33.445Z,11.53
2019-05-17T13:01:03.581Z,7.60
2019-05-17T13:03:33.730Z,8.88
2019-05-17T13:06:03.818Z,5.85
2019-05-17T13:08:34.104Z,8.75
2019-05-17T13:11:04.337Z,6.92
2019-05-17T13:13:34.503Z,11.08
2019-05-17T13:16:17.619Z,8.65
2019-05-17T13:18:36.673Z,9.35
2019-05-17T13:21:09.242Z,10.38
2019-05-17T13:23:39.750Z,6.80
2019-05-17T13:26:11.141Z,9.85
2019-05-17T13:28:41.974Z,7.42
2019-05-17T13:31:12.653Z,7.55
2019-05-17T13:33:47.893Z,9.88
2019-05-17T13:36:21.415Z,10.93
2019-05-17T13:38:55.299Z,10.63
2019-05-17T13:41:39.105Z,8.88
2019-05-17T13:44:09.362Z,7.33
2019-05-17T13:46:45.646Z,10.70
2019-05-17T13:49:17.037Z,9.30
2019-05-17T13:51:47.960Z,10.20
2019-05-17T13:54:18.214Z,12.88
2019-05-17T13:56:48.348Z,9.45
2019-05-17T13:59:18.533Z,7.78
2019-05-17T14:01:48.756Z,10.70
2019-05-17T14:04:20.530Z,10.25
2019-05-17T14:06:50.644Z,9.98
2019-05-17T14:09:20.803Z,11.33
2019-05-17T14:11:51.004Z,9.18
2019-05-17T14:14:22.418Z,9.55
2019-05-17T14:16:53.445Z,7.47
2019-05-17T14:19:28.424Z,10.78
2019-05-17T14:22:02.448Z,10.30
2019-05-17T14:24:35.907Z,8.88
2019-05-17T14:27:06.221Z,11.70
2019-05-17T14:29:36.466Z,10.68
2019-05-17T14:32:09.182Z,10.08
2019-05-17T14:34:42.124Z,10.15
2019-05-17T14:37:12.336Z,9.60
2019-05-17T14:39:42.593Z,10.80
2019-05-17T14:42:12.732Z,11.90
2019-05-17T14:44:42.888Z,10.65
2019-05-17T14:47:14.436Z,9.70
2019-05-17T14:49:51.083Z,8.00
2019-05-17T14:52:19.805Z,9.23
2019-05-17T14:54:51.231Z,9.83
2019-05-17T14:57:21.933Z,9.55
2019-05-17T14:59:52.751Z,11.78
2019-05-17T15:02:29.855Z,7.67
2019-05-17T15:05:03.503Z,8.13
2019-05-17T15:07:33.627Z,9.03
2019-05-17T15:10:03.901Z,8.68
2019-05-17T15:12:36.571Z,8.05
2019-05-17T15:15:09.537Z,7.40
2019-05-17T15:17:40.305Z,5.75
2019-05-17T15:20:13.374Z,6.45
2019-05-17T15:22:44.973Z,6.53
2019-05-17T15:25:15.252Z,6.62
2019-05-17T15:27:48.887Z,5.85
2019-05-17T15:30:30.523Z,6.55
2019-05-17T15:33:00.964Z,7.12
2019-05-17T15:35:31.249Z,4.95
2019-05-17T15:38:01.571Z,6.40
2019-05-17T15:40:31.919Z,6.20
2019-05-17T15:43:02.217Z,5.28
2019-05-17T15:45:38.567Z,4.42
2019-05-17T15:48:08.775Z,6.28
2019-05-17T15:50:38.984Z,6.92
2019-05-17T15:53:09.166Z,4.80
2019-05-17T15:55:39.312Z,6.08
2019-05-17T15:58:09.608Z,4.05
2019-05-17T16:00:39.813Z,5.22
2019-05-17T16:03:14.474Z,7.20
2019-05-17T16:05:44.641Z,5.45
2019-05-17T16:08:19.195Z,7.30
2019-05-17T16:10:49.380Z,6.33
2019-05-17T16:13:19.716Z,5.15
2019-05-17T16:15:49.887Z,6.40
2019-05-17T16:18:20.075Z,7.80
2019-05-17T16:20:50.229Z,6.00
2019-05-17T16:23:23.549Z,6.53
2019-05-17T16:25:53.793Z,6.00
2019-05-17T16:28:23.982Z,5.53
2019-05-17T16:30:54.252Z,8.85
2019-05-17T16:33:24.705Z,7.87
2019-05-17T16:35:54.850Z,9.83
2019-05-17T16:38:27.783Z,7.97
2019-05-17T16:40:58.011Z,7.25
2019-05-17T16:43:28.253Z,6.47
2019-05-17T16:45:58.855Z,6.67
2019-05-17T16:48:29.133Z,6.08
2019-05-17T16:50:59.243Z,5.22
2019-05-17T16:53:29.499Z,6.12
2019-05-17T16:55:59.646Z,7.45
2019-05-17T16:58:31.867Z,7.83
2019-05-17T17:01:07.738Z,4.75
2019-05-17T17:03:44.232Z,6.58
2019-05-17T17:06:10.574Z,6.55
2019-05-17T17:08:42.209Z,10.98
2019-05-17T17:11:12.382Z,6.55
2019-05-17T17:13:42.940Z,5.90
2019-05-17T17:16:14.524Z,7.97
2019-05-17T17:18:44.977Z,9.05
2019-05-17T17:21:15.287Z,6.72
2019-05-17T17:23:45.564Z,8.88
2019-05-17T17:26:15.774Z,9.18
2019-05-17T17:28:46.036Z,7.50
2019-05-17T17:31:25.786Z,6.70
2019-05-17T17:33:54.446Z,8.03
2019-05-17T17:36:24.684Z,5.72
2019-05-17T17:38:55.812Z,11.28
2019-05-17T17:41:29.974Z,6.42
2019-05-17T17:44:03.495Z,6.75
2019-05-17T17:46:36.797Z,7.20
2019-05-17T17:49:07.174Z,6.85
2019-05-17T17:51:37.291Z,7.35
2019-05-17T17:54:07.433Z,8.55
2019-05-17T17:56:37.761Z,6.12
2019-05-17T17:59:10.527Z,7.20
2019-05-17T18:01:41.692Z,7.10
2019-05-17T18:04:11.957Z,8.15
2019-05-17T18:06:42.410Z,8.75
2019-05-17T18:09:12.635Z,8.18
2019-05-17T18:11:49.934Z,6.60
2019-05-17T18:14:20.176Z,8.75
2019-05-17T18:16:50.300Z,9.23
2019-05-17T18:19:20.644Z,7.70
2019-05-17T18:21:51.574Z,8.53
2019-05-17T18:24:32.183Z,9.70
2019-05-17T18:27:02.446Z,7.55
2019-05-17T18:29:34.244Z,11.68
2019-05-17T18:32:05.449Z,10.48
2019-05-17T18:34:35.610Z,9.23
2019-05-17T18:37:07.532Z,12.30
2019-05-17T18:39:38.136Z,12.55
2019-05-17T18:42:08.459Z,12.25
2019-05-17T18:44:38.690Z,11.88
2019-05-17T18:47:09.009Z,11.63
2019-05-17T18:49:42.748Z,9.95
2019-05-17T18:52:15.968Z,13.15
2019-05-17T18:54:45.448Z,11.73
2019-05-17T18:57:15.714Z,10.98
2019-05-17T18:59:45.883Z,10.95
2019-05-17T19:02:16.269Z,9.25
2019-05-17T19:04:46.560Z,11.08
2019-05-17T19:07:19.788Z,11.73
2019-05-17T19:09:50.006Z,11.10
2019-05-17T19:12:20.226Z,11.45
2019-05-17T19:14:50.562Z,12.47
2019-05-17T19:17:20.832Z,12.63
2019-05-17T19:19:51.042Z,11.75
2019-05-17T19:22:22.811Z,10.95
2019-05-17T19:24:55.536Z,10.55
2019-05-17T19:27:25.772Z,12.23
2019-05-17T19:29:55.953Z,12.28
2019-05-17T19:32:26.174Z,11.97
2019-05-17T19:34:56.550Z,13.05
2019-05-17T19:37:26.921Z,13.50
2019-05-17T19:40:03.572Z,11.43
2019-05-17T19:42:34.067Z,13.45
2019-05-17T19:45:04.658Z,14.15
2019-05-17T19:47:35.164Z,12.03
2019-05-17T19:50:05.974Z,12.98
2019-05-17T19:52:36.292Z,13.30
2019-05-17T19:55:08.734Z,16.23
2019-05-17T19:57:39.089Z,13.32
2019-05-17T20:00:10.242Z,15.55
2019-05-17T20:02:40.637Z,16.25
2019-05-17T20:05:12.065Z,14.38
2019-05-17T20:07:43.506Z,16.45
2019-05-17T20:10:18.442Z,14.05
2019-05-17T20:12:48.766Z,18.70
2019-05-17T20:15:33.513Z,17.85
2019-05-17T20:17:52.108Z,16.57
2019-05-17T20:20:22.806Z,19.10
2019-05-17T20:23:00.952Z,17.82
2019-05-17T20:25:31.602Z,20.27
2019-05-17T20:28:05.640Z,19.12
2019-05-17T20:30:50.900Z,22.15
2019-05-17T20:33:24.916Z,35.03
2019-05-17T20:35:55.518Z,23.05
2019-05-17T20:38:26.045Z,24.52
2019-05-17T20:40:56.245Z,23.80
2019-05-17T20:43:30.309Z,21.82
2019-05-17T20:46:00.596Z,19.32
2019-05-17T20:48:31.019Z,22.15
2019-05-17T20:51:01.230Z,20.95
2019-05-17T20:53:31.630Z,21.00
2019-05-17T20:56:02.211Z,20.97
2019-05-17T20:58:32.967Z,19.57
2019-05-17T21:01:05.596Z,20.50
2019-05-17T21:03:36.184Z,21.05
2019-05-17T21:06:06.777Z,20.37
2019-05-17T21:08:45.482Z,24.43
2019-05-17T21:11:09.345Z,25.35
2019-05-17T21:13:39.725Z,23.15
2019-05-17T21:16:10.068Z,22.75
2019-05-17T21:18:40.437Z,23.65
2019-05-17T21:21:10.847Z,24.05
2019-05-17T21:23:42.539Z,24.25
2019-05-17T21:26:12.884Z,24.45
2019-05-17T21:28:43.328Z,22.50
2019-05-17T21:31:14.075Z,23.57
2019-05-17T21:33:44.672Z,22.13
2019-05-17T21:36:15.153Z,24.90
2019-05-17T21:38:45.563Z,23.65
2019-05-17T21:41:15.859Z,24.12
2019-05-17T21:43:46.407Z,26.07
2019-05-17T21:46:16.935Z,22.58
2019-05-17T21:48:47.444Z,24.30
2019-05-17T21:51:18.867Z,25.02
2019-05-17T21:53:49.191Z,24.10
2019-05-17T21:56:21.716Z,23.75
2019-05-17T21:58:52.413Z,26.27
2019-05-17T22:01:25.566Z,24.07
2019-05-17T22:03:56.247Z,23.70
2019-05-17T22:06:26.666Z,25.68
2019-05-17T22:09:01.262Z,25.05
2019-05-17T22:11:33.236Z,26.15
2019-05-17T22:14:03.528Z,26.00
2019-05-17T22:16:33.677Z,29.30
2019-05-17T22:19:04.861Z,23.95
2019-05-17T22:21:35.022Z,26.42
2019-05-17T22:24:05.213Z,26.50
2019-05-17T22:26:35.315Z,27.93
2019-05-17T22:29:05.477Z,28.52
2019-05-17T22:31:38.863Z,26.33
2019-05-17T22:34:07.446Z,26.40
2019-05-17T22:36:37.533Z,26.97
2019-05-17T22:39:08.353Z,25.17
2019-05-17T22:41:38.521Z,24.98
2019-05-17T22:44:08.683Z,26.90
2019-05-17T22:46:38.775Z,26.10
2019-05-17T22:49:08.949Z,26.65
2019-05-17T22:51:39.099Z,28.98
2019-05-17T22:54:10.119Z,26.55
2019-05-17T22:56:40.235Z,28.65
2019-05-17T22:59:10.447Z,30.68
2019-05-17T23:01:40.561Z,28.52
2019-05-17T23:04:10.695Z,30.20
2019-05-17T23:06:40.828Z,28.55
2019-05-17T23:09:10.976Z,35.78
2019-05-17T23:11:41.098Z,31.00
2019-05-17T23:14:11.369Z,30.02
2019-05-17T23:16:50.993Z,25.95
2019-05-17T23:19:13.515Z,28.12
2019-05-17T23:21:44.231Z,26.82
2019-05-17T23:24:15.445Z,27.73
2019-05-17T23:26:47.221Z,25.62
2019-05-17T23:29:17.477Z,31.48
2019-05-17T23:31:47.559Z,28.27
2019-05-17T23:34:17.884Z,29.98
2019-05-17T23:36:48.921Z,29.98
2019-05-17T23:39:23.941Z,31.12
2019-05-17T23:41:57.696Z,28.02
2019-05-17T23:44:27.893Z,29.75
2019-05-17T23:47:06.784Z,29.20
2019-05-17T23:49:29.876Z,29.05
2019-05-17T23:52:00.004Z,28.40
2019-05-17T23:54:30.211Z,27.00
2019-05-17T23:57:00.443Z,28.02
2019-05-17T23:59:30.551Z,26.57
